Text Box: All records at near 07:00 local time
Kleivo 1 weather for Oct 2008
Month no. 23
Obs.
Da.
Temp. Dew Point Precip. Wind
Speed
Wind gusts Cloud cover Press. Humidity Wind dir. Sunny OPT
01.10.2008 8,9   0,0 5,8   0 982,0 86,0 112,5   60,0 %
02.10.2008 8,4   0,0 0,0   0 985,1 95,0 67,5   62,5 %
03.10.2008 9,6   0,0 8,1   0 989,5 91,0 45,0   57,5 %
04.10.2008 8,6   0,0 21,9   0 1001,7 65,0 315,0   47,5 %
05.10.2008 8,1   0,0 41,4   0 979,3 82,0 202,5   37,5 %
06.10.2008 9,6   0,0 24,0   0 1006,8 66,0 315,0   47,5 %
07.10.2008 9,3   0,0 23,0   0 1012,5 72,0 135,0   47,5 %
08.10.2008 12,6   0,0 28,8   4 1004,4 91,0 135,0 1 60,0 %
09.10.2008 11,2   0,0 11,5   10 1021,3 79,0 315,0 1 82,5 %
10.10.2008 12,3   0,0 29,9   0 1017,6 98,0 202,5   45,0 %
11.10.2008 12,7   0,0 16,1   0 1012,5 87,0 270,0   57,5 %
12.10.2008 11,8   0,0 24,2   10 1017,3 78,0 270,0 1 75,0 %
13.10.2008 12,6   0,0 26,5   0 1006,4 88,0 202,5   50,0 %
14.10.2008 10,9   9,7 19,6   0 1008,5 78,0 292,5   45,0 %
15.10.2008 8,7   0,0 12,0   0 1007,8 89,0 135,0   55,0 %
16.10.2008 9,2   0,0 5,0   0 993,9 81,0 180,0   60,0 %
17.10.2008 6,5   0,0 5,8   0 1006,1 92,0 67,5   57,5 %
18.10.2008 10,3   0,0 11,5   0 1004,7 83,0 202,5   57,5 %
19.10.2008 6,5   0,0 0,0   1 987,5 90,0 0,0   62,5 %
20.10.2008 11,3   0,0 0,0   1 976,0 94,0 0,0   67,5 %
21.10.2008 7,3   0,0 0,0   1 971,2 91,0 0,0   62,5 %
22.10.2008 5,2   0,0 0,0   2 984,1 85,0 0,0   65,0 %
23.10.2008 8,5   0,0 0,0   1 991,5 94,0 0,0   65,0 %
24.10.2008 10,2   0,0 0,0   7 984,1 80,0 0,0 1 82,5 %
25.10.2008 7,3   0,0 0,0   0 994,9 90,0 0,0   60,0 %
26.10.2008 10,6   0,0 23,0   0 998,6 76,0 247,5   50,0 %
27.10.2008 3,8   0,0 0,0   1 972,6 89,0 0,0   60,0 %
28.10.2008 0,7   0,0 0,0   1 981,4 93,0 0,0   57,5 %
29.10.2008 4,2   0,0 0,0   8 981,0 55,0 0,0 1 77,5 %
30.10.2008 -0,7   0,0 0,0   10 983,7 86,0 0,0 1 77,5 %
31.10.2008 -1,0   0,0 57,5   8 990,9 88,0 0,0   47,5 %
Avrg/Sum 8,2   9,7 12,8   2,1 995,3 84,3 119,8 6 59,4 %